sensor_id;sensor_type;location;lat;lon;timestamp;P1;durP1;ratioP1;P2;durP2;ratioP2
57778;SDS011;43608;49.486;9.640;2023-12-14T00:00:26;4.20;;;3.60;;
57778;SDS011;43608;49.486;9.640;2023-12-14T00:00:57;4.10;;;3.33;;
57778;SDS011;43608;49.486;9.640;2023-12-14T00:01:27;4.78;;;4.00;;
57778;SDS011;43608;49.486;9.640;2023-12-14T00:01:57;4.45;;;3.60;;
57778;SDS011;43608;49.486;9.640;2023-12-14T00:02:28;4.45;;;3.30;;
57778;SDS011;43608;49.486;9.640;2023-12-14T00:02:58;4.60;;;3.47;;
57778;SDS011;43608;49.486;9.640;2023-12-14T00:03:29;4.50;;;3.72;;
57778;SDS011;43608;49.486;9.640;2023-12-14T00:03:59;4.47;;;3.50;;
57778;SDS011;43608;49.486;9.640;2023-12-14T00:04:29;4.93;;;3.60;;
57778;SDS011;43608;49.486;9.640;2023-12-14T00:05:00;4.30;;;3.50;;
57778;SDS011;43608;49.486;9.640;2023-12-14T00:05:30;4.50;;;3.58;;
57778;SDS011;43608;49.486;9.640;2023-12-14T00:06:00;4.90;;;3.70;;
57778;SDS011;43608;49.486;9.640;2023-12-14T00:06:31;4.20;;;3.53;;
57778;SDS011;43608;49.486;9.640;2023-12-14T00:07:01;4.30;;;3.53;;
57778;SDS011;43608;49.486;9.640;2023-12-14T00:07:32;5.35;;;3.83;;
57778;SDS011;43608;49.486;9.640;2023-12-14T00:08:02;4.85;;;3.78;;
57778;SDS011;43608;49.486;9.640;2023-12-14T00:08:32;4.40;;;3.50;;
57778;SDS011;43608;49.486;9.640;2023-12-14T00:09:03;5.50;;;3.80;;
57778;SDS011;43608;49.486;9.640;2023-12-14T00:09:33;5.10;;;3.60;;
57778;SDS011;43608;49.486;9.640;2023-12-14T00:10:04;5.10;;;3.92;;
57778;SDS011;43608;49.486;9.640;2023-12-14T00:10:35;5.57;;;4.00;;
57778;SDS011;43608;49.486;9.640;2023-12-14T00:11:06;4.28;;;3.33;;
57778;SDS011;43608;49.486;9.640;2023-12-14T00:11:40;4.60;;;3.80;;
57778;SDS011;43608;49.486;9.640;2023-12-14T00:12:11;5.00;;;4.10;;
57778;SDS011;43608;49.486;9.640;2023-12-14T00:12:41;6.35;;;4.45;;
57778;SDS011;43608;49.486;9.640;2023-12-14T00:13:12;5.50;;;3.70;;
57778;SDS011;43608;49.486;9.640;2023-12-14T00:13:42;4.72;;;3.83;;
57778;SDS011;43608;49.486;9.640;2023-12-14T00:14:12;4.88;;;3.85;;
57778;SDS011;43608;49.486;9.640;2023-12-14T00:14:43;5.57;;;4.50;;
57778;SDS011;43608;49.486;9.640;2023-12-14T00:15:13;5.50;;;4.10;;
57778;SDS011;43608;49.486;9.640;2023-12-14T00:15:43;5.32;;;4.03;;
57778;SDS011;43608;49.486;9.640;2023-12-14T00:16:14;5.75;;;4.25;;
57778;SDS011;43608;49.486;9.640;2023-12-14T00:16:45;4.72;;;3.90;;
57778;SDS011;43608;49.486;9.640;2023-12-14T00:17:15;5.75;;;3.83;;
57778;SDS011;43608;49.486;9.640;2023-12-14T00:17:45;4.63;;;3.83;;
57778;SDS011;43608;49.486;9.640;2023-12-14T00:18:16;4.93;;;3.83;;
57778;SDS011;43608;49.486;9.640;2023-12-14T00:18:46;4.90;;;3.83;;
57778;SDS011;43608;49.486;9.640;2023-12-14T00:19:16;5.20;;;4.20;;
57778;SDS011;43608;49.486;9.640;2023-12-14T00:19:47;5.60;;;4.07;;
57778;SDS011;43608;49.486;9.640;2023-12-14T00:20:18;4.72;;;3.60;;
57778;SDS011;43608;49.486;9.640;2023-12-14T00:20:48;5.78;;;4.13;;
57778;SDS011;43608;49.486;9.640;2023-12-14T00:21:18;5.03;;;3.95;;
57778;SDS011;43608;49.486;9.640;2023-12-14T00:21:49;5.13;;;4.18;;
57778;SDS011;43608;49.486;9.640;2023-12-14T00:22:19;4.43;;;3.67;;
57778;SDS011;43608;49.486;9.640;2023-12-14T00:22:49;5.20;;;3.97;;
57778;SDS011;43608;49.486;9.640;2023-12-14T00:23:20;4.40;;;3.75;;
57778;SDS011;43608;49.486;9.640;2023-12-14T00:23:50;4.88;;;3.70;;
57778;SDS011;43608;49.486;9.640;2023-12-14T00:24:21;4.40;;;3.60;;
57778;SDS011;43608;49.486;9.640;2023-12-14T00:24:51;4.53;;;3.88;;
57778;SDS011;43608;49.486;9.640;2023-12-14T00:25:22;4.50;;;3.58;;
57778;SDS011;43608;49.486;9.640;2023-12-14T00:25:52;4.85;;;3.90;;
57778;SDS011;43608;49.486;9.640;2023-12-14T00:26:22;4.32;;;3.60;;
57778;SDS011;43608;49.486;9.640;2023-12-14T00:26:53;4.43;;;3.60;;
57778;SDS011;43608;49.486;9.640;2023-12-14T00:27:23;4.80;;;3.80;;
57778;SDS011;43608;49.486;9.640;2023-12-14T00:27:53;5.57;;;4.05;;
57778;SDS011;43608;49.486;9.640;2023-12-14T00:28:24;4.60;;;3.83;;
57778;SDS011;43608;49.486;9.640;2023-12-14T00:28:54;4.20;;;3.55;;
57778;SDS011;43608;49.486;9.640;2023-12-14T00:29:24;4.32;;;3.60;;
57778;SDS011;43608;49.486;9.640;2023-12-14T00:29:55;4.90;;;3.78;;
57778;SDS011;43608;49.486;9.640;2023-12-14T00:30:25;4.47;;;3.58;;
57778;SDS011;43608;49.486;9.640;2023-12-14T00:30:56;4.60;;;3.60;;
57778;SDS011;43608;49.486;9.640;2023-12-14T00:31:26;4.22;;;3.40;;
57778;SDS011;43608;49.486;9.640;2023-12-14T00:31:56;4.80;;;3.85;;
57778;SDS011;43608;49.486;9.640;2023-12-14T00:32:27;5.20;;;3.70;;
57778;SDS011;43608;49.486;9.640;2023-12-14T00:32:57;4.72;;;3.72;;
57778;SDS011;43608;49.486;9.640;2023-12-14T00:33:27;4.63;;;3.60;;
57778;SDS011;43608;49.486;9.640;2023-12-14T00:33:58;4.43;;;3.50;;
57778;SDS011;43608;49.486;9.640;2023-12-14T00:34:28;4.22;;;3.63;;
57778;SDS011;43608;49.486;9.640;2023-12-14T00:34:58;4.70;;;3.67;;
57778;SDS011;43608;49.486;9.640;2023-12-14T00:35:29;4.63;;;3.70;;
57778;SDS011;43608;49.486;9.640;2023-12-14T00:35:59;4.57;;;4.00;;
57778;SDS011;43608;49.486;9.640;2023-12-14T00:36:29;4.50;;;3.60;;
57778;SDS011;43608;49.486;9.640;2023-12-14T00:37:00;4.45;;;3.58;;
57778;SDS011;43608;49.486;9.640;2023-12-14T00:37:30;4.97;;;3.85;;
57778;SDS011;43608;49.486;9.640;2023-12-14T00:38:00;4.85;;;3.60;;
57778;SDS011;43608;49.486;9.640;2023-12-14T00:38:31;4.80;;;3.55;;
57778;SDS011;43608;49.486;9.640;2023-12-14T00:39:01;4.25;;;3.58;;
57778;SDS011;43608;49.486;9.640;2023-12-14T00:39:32;4.85;;;3.90;;
57778;SDS011;43608;49.486;9.640;2023-12-14T00:40:02;4.80;;;3.45;;
57778;SDS011;43608;49.486;9.640;2023-12-14T00:40:33;4.55;;;3.70;;
57778;SDS011;43608;49.486;9.640;2023-12-14T00:41:04;4.80;;;3.60;;
57778;SDS011;43608;49.486;9.640;2023-12-14T00:41:34;5.03;;;3.65;;
57778;SDS011;43608;49.486;9.640;2023-12-14T00:42:04;4.55;;;3.58;;
57778;SDS011;43608;49.486;9.640;2023-12-14T00:42:35;4.40;;;3.70;;
57778;SDS011;43608;49.486;9.640;2023-12-14T00:43:05;4.10;;;3.33;;
57778;SDS011;43608;49.486;9.640;2023-12-14T00:43:35;4.82;;;3.60;;
57778;SDS011;43608;49.486;9.640;2023-12-14T00:44:06;3.97;;;3.53;;
57778;SDS011;43608;49.486;9.640;2023-12-14T00:44:36;4.57;;;3.83;;
57778;SDS011;43608;49.486;9.640;2023-12-14T00:45:07;4.43;;;3.50;;
57778;SDS011;43608;49.486;9.640;2023-12-14T00:45:37;4.82;;;3.92;;
57778;SDS011;43608;49.486;9.640;2023-12-14T00:46:08;4.70;;;3.75;;
57778;SDS011;43608;49.486;9.640;2023-12-14T00:46:39;4.70;;;3.78;;
57778;SDS011;43608;49.486;9.640;2023-12-14T00:47:11;4.75;;;3.78;;
57778;SDS011;43608;49.486;9.640;2023-12-14T00:47:41;4.20;;;3.45;;
57778;SDS011;43608;49.486;9.640;2023-12-14T00:48:12;4.30;;;3.28;;
57778;SDS011;43608;49.486;9.640;2023-12-14T00:48:42;4.78;;;3.88;;
57778;SDS011;43608;49.486;9.640;2023-12-14T00:49:13;4.38;;;3.47;;
57778;SDS011;43608;49.486;9.640;2023-12-14T00:49:43;4.90;;;3.90;;
57778;SDS011;43608;49.486;9.640;2023-12-14T00:50:13;4.70;;;3.80;;
57778;SDS011;43608;49.486;9.640;2023-12-14T00:50:44;4.20;;;3.45;;
57778;SDS011;43608;49.486;9.640;2023-12-14T00:51:14;4.50;;;3.65;;
57778;SDS011;43608;49.486;9.640;2023-12-14T00:51:44;4.47;;;3.38;;
57778;SDS011;43608;49.486;9.640;2023-12-14T00:52:15;4.72;;;3.30;;
57778;SDS011;43608;49.486;9.640;2023-12-14T00:52:45;4.50;;;3.50;;
57778;SDS011;43608;49.486;9.640;2023-12-14T00:53:16;4.22;;;3.60;;
57778;SDS011;43608;49.486;9.640;2023-12-14T00:53:46;4.40;;;3.63;;
57778;SDS011;43608;49.486;9.640;2023-12-14T00:54:16;4.57;;;3.60;;
57778;SDS011;43608;49.486;9.640;2023-12-14T00:54:47;4.47;;;3.47;;
57778;SDS011;43608;49.486;9.640;2023-12-14T00:55:17;4.47;;;3.55;;
57778;SDS011;43608;49.486;9.640;2023-12-14T00:55:47;4.65;;;3.80;;
57778;SDS011;43608;49.486;9.640;2023-12-14T00:56:18;4.40;;;3.40;;
57778;SDS011;43608;49.486;9.640;2023-12-14T00:56:48;4.60;;;3.63;;
57778;SDS011;43608;49.486;9.640;2023-12-14T00:57:18;4.40;;;3.65;;
57778;SDS011;43608;49.486;9.640;2023-12-14T00:57:49;4.90;;;3.92;;
57778;SDS011;43608;49.486;9.640;2023-12-14T00:58:19;5.07;;;3.90;;
57778;SDS011;43608;49.486;9.640;2023-12-14T00:58:50;4.32;;;3.53;;
57778;SDS011;43608;49.486;9.640;2023-12-14T00:59:20;5.18;;;4.07;;
57778;SDS011;43608;49.486;9.640;2023-12-14T00:59:51;4.75;;;3.70;;
57778;SDS011;43608;49.486;9.640;2023-12-14T01:00:21;4.43;;;3.60;;
57778;SDS011;43608;49.486;9.640;2023-12-14T01:00:51;4.60;;;3.60;;
57778;SDS011;43608;49.486;9.640;2023-12-14T01:01:24;4.28;;;3.35;;
57778;SDS011;43608;49.486;9.640;2023-12-14T01:01:54;5.05;;;3.58;;
57778;SDS011;43608;49.486;9.640;2023-12-14T01:02:25;5.47;;;3.88;;
57778;SDS011;43608;49.486;9.640;2023-12-14T01:02:55;4.65;;;3.70;;
57778;SDS011;43608;49.486;9.640;2023-12-14T01:03:25;5.38;;;3.88;;
57778;SDS011;43608;49.486;9.640;2023-12-14T01:03:56;5.07;;;3.70;;
57778;SDS011;43608;49.486;9.640;2023-12-14T01:04:26;4.20;;;3.65;;
57778;SDS011;43608;49.486;9.640;2023-12-14T01:04:56;4.60;;;4.00;;
57778;SDS011;43608;49.486;9.640;2023-12-14T01:05:27;5.63;;;3.92;;
57778;SDS011;43608;49.486;9.640;2023-12-14T01:05:57;5.25;;;3.90;;
57778;SDS011;43608;49.486;9.640;2023-12-14T01:06:27;5.00;;;3.90;;
57778;SDS011;43608;49.486;9.640;2023-12-14T01:06:58;4.55;;;3.70;;
57778;SDS011;43608;49.486;9.640;2023-12-14T01:07:28;4.72;;;3.88;;
57778;SDS011;43608;49.486;9.640;2023-12-14T01:07:58;4.53;;;3.50;;
57778;SDS011;43608;49.486;9.640;2023-12-14T01:08:29;4.32;;;3.40;;
57778;SDS011;43608;49.486;9.640;2023-12-14T01:08:59;4.45;;;3.70;;
57778;SDS011;43608;49.486;9.640;2023-12-14T01:09:30;4.28;;;3.53;;
57778;SDS011;43608;49.486;9.640;2023-12-14T01:10:00;4.85;;;3.42;;
57778;SDS011;43608;49.486;9.640;2023-12-14T01:10:31;4.47;;;3.63;;
57778;SDS011;43608;49.486;9.640;2023-12-14T01:11:02;4.72;;;3.65;;
57778;SDS011;43608;49.486;9.640;2023-12-14T01:11:33;4.65;;;3.65;;
57778;SDS011;43608;49.486;9.640;2023-12-14T01:12:03;4.10;;;3.40;;
57778;SDS011;43608;49.486;9.640;2023-12-14T01:12:34;4.25;;;3.50;;
57778;SDS011;43608;49.486;9.640;2023-12-14T01:13:04;4.35;;;3.53;;
57778;SDS011;43608;49.486;9.640;2023-12-14T01:13:35;4.15;;;3.45;;
57778;SDS011;43608;49.486;9.640;2023-12-14T01:14:05;4.65;;;3.55;;
57778;SDS011;43608;49.486;9.640;2023-12-14T01:14:35;4.55;;;3.70;;
57778;SDS011;43608;49.486;9.640;2023-12-14T01:15:06;4.60;;;3.60;;
57778;SDS011;43608;49.486;9.640;2023-12-14T01:15:37;3.95;;;3.30;;
57778;SDS011;43608;49.486;9.640;2023-12-14T01:16:07;4.13;;;3.35;;
57778;SDS011;43608;49.486;9.640;2023-12-14T01:16:37;4.13;;;3.35;;
57778;SDS011;43608;49.486;9.640;2023-12-14T01:17:08;3.95;;;3.30;;
57778;SDS011;43608;49.486;9.640;2023-12-14T01:17:39;4.38;;;3.58;;
57778;SDS011;43608;49.486;9.640;2023-12-14T01:18:09;4.85;;;3.70;;
57778;SDS011;43608;49.486;9.640;2023-12-14T01:18:39;4.82;;;3.70;;
57778;SDS011;43608;49.486;9.640;2023-12-14T01:19:10;4.25;;;3.42;;
57778;SDS011;43608;49.486;9.640;2023-12-14T01:19:40;4.78;;;3.70;;
57778;SDS011;43608;49.486;9.640;2023-12-14T01:20:11;4.50;;;3.63;;
57778;SDS011;43608;49.486;9.640;2023-12-14T01:20:41;4.68;;;3.50;;
57778;SDS011;43608;49.486;9.640;2023-12-14T01:21:12;4.25;;;3.20;;
57778;SDS011;43608;49.486;9.640;2023-12-14T01:21:42;4.63;;;3.50;;
57778;SDS011;43608;49.486;9.640;2023-12-14T01:22:13;4.65;;;3.65;;
57778;SDS011;43608;49.486;9.640;2023-12-14T01:22:43;4.28;;;3.53;;
57778;SDS011;43608;49.486;9.640;2023-12-14T01:23:13;4.50;;;3.60;;
57778;SDS011;43608;49.486;9.640;2023-12-14T01:23:44;5.10;;;3.70;;
57778;SDS011;43608;49.486;9.640;2023-12-14T01:24:14;4.40;;;3.60;;
57778;SDS011;43608;49.486;9.640;2023-12-14T01:24:44;4.68;;;4.05;;
57778;SDS011;43608;49.486;9.640;2023-12-14T01:25:15;4.57;;;3.70;;
57778;SDS011;43608;49.486;9.640;2023-12-14T01:25:45;4.70;;;3.65;;
57778;SDS011;43608;49.486;9.640;2023-12-14T01:26:15;4.80;;;3.53;;
57778;SDS011;43608;49.486;9.640;2023-12-14T01:26:47;4.57;;;3.80;;
57778;SDS011;43608;49.486;9.640;2023-12-14T01:27:18;4.82;;;3.95;;
57778;SDS011;43608;49.486;9.640;2023-12-14T01:27:48;4.70;;;3.90;;
57778;SDS011;43608;49.486;9.640;2023-12-14T01:28:19;4.95;;;4.10;;
57778;SDS011;43608;49.486;9.640;2023-12-14T01:28:49;4.45;;;3.65;;
57778;SDS011;43608;49.486;9.640;2023-12-14T01:29:19;5.03;;;3.95;;
57778;SDS011;43608;49.486;9.640;2023-12-14T01:29:50;5.00;;;4.00;;
57778;SDS011;43608;49.486;9.640;2023-12-14T01:30:20;4.80;;;3.72;;
57778;SDS011;43608;49.486;9.640;2023-12-14T01:30:50;5.60;;;4.50;;
57778;SDS011;43608;49.486;9.640;2023-12-14T01:31:21;4.90;;;4.10;;
57778;SDS011;43608;49.486;9.640;2023-12-14T01:31:53;5.07;;;3.90;;
57778;SDS011;43608;49.486;9.640;2023-12-14T01:32:23;4.70;;;3.83;;
57778;SDS011;43608;49.486;9.640;2023-12-14T01:32:53;5.20;;;3.95;;
57778;SDS011;43608;49.486;9.640;2023-12-14T01:33:24;4.85;;;3.75;;
57778;SDS011;43608;49.486;9.640;2023-12-14T01:33:54;5.03;;;4.07;;
57778;SDS011;43608;49.486;9.640;2023-12-14T01:34:25;5.00;;;4.00;;
57778;SDS011;43608;49.486;9.640;2023-12-14T01:34:56;5.95;;;3.72;;
57778;SDS011;43608;49.486;9.640;2023-12-14T01:35:27;4.63;;;3.55;;
57778;SDS011;43608;49.486;9.640;2023-12-14T01:35:59;4.47;;;3.78;;
57778;SDS011;43608;49.486;9.640;2023-12-14T01:36:30;4.55;;;3.70;;
57778;SDS011;43608;49.486;9.640;2023-12-14T01:37:00;5.00;;;4.03;;
57778;SDS011;43608;49.486;9.640;2023-12-14T01:37:30;4.75;;;3.90;;
57778;SDS011;43608;49.486;9.640;2023-12-14T01:38:01;4.78;;;3.70;;
57778;SDS011;43608;49.486;9.640;2023-12-14T01:38:31;4.30;;;3.50;;
57778;SDS011;43608;49.486;9.640;2023-12-14T01:39:01;4.35;;;3.60;;
57778;SDS011;43608;49.486;9.640;2023-12-14T01:39:32;4.53;;;3.95;;
57778;SDS011;43608;49.486;9.640;2023-12-14T01:40:03;5.25;;;4.00;;
57778;SDS011;43608;49.486;9.640;2023-12-14T01:40:33;4.90;;;3.80;;
57778;SDS011;43608;49.486;9.640;2023-12-14T01:41:04;4.47;;;3.80;;
57778;SDS011;43608;49.486;9.640;2023-12-14T01:41:34;4.97;;;3.88;;
57778;SDS011;43608;49.486;9.640;2023-12-14T01:42:04;4.50;;;3.83;;
57778;SDS011;43608;49.486;9.640;2023-12-14T01:42:35;4.88;;;3.70;;
57778;SDS011;43608;49.486;9.640;2023-12-14T01:43:06;4.55;;;3.72;;
57778;SDS011;43608;49.486;9.640;2023-12-14T01:43:38;4.60;;;3.70;;
57778;SDS011;43608;49.486;9.640;2023-12-14T01:44:08;4.57;;;3.50;;
57778;SDS011;43608;49.486;9.640;2023-12-14T01:44:38;4.88;;;3.78;;
57778;SDS011;43608;49.486;9.640;2023-12-14T01:45:09;4.65;;;3.85;;
57778;SDS011;43608;49.486;9.640;2023-12-14T01:45:39;4.47;;;3.58;;
57778;SDS011;43608;49.486;9.640;2023-12-14T01:46:10;4.53;;;3.70;;
57778;SDS011;43608;49.486;9.640;2023-12-14T01:46:41;4.60;;;3.75;;
57778;SDS011;43608;49.486;9.640;2023-12-14T01:47:11;4.72;;;3.83;;
57778;SDS011;43608;49.486;9.640;2023-12-14T01:47:42;4.68;;;3.60;;
57778;SDS011;43608;49.486;9.640;2023-12-14T01:48:13;4.57;;;3.65;;
57778;SDS011;43608;49.486;9.640;2023-12-14T01:48:43;4.43;;;3.53;;
57778;SDS011;43608;49.486;9.640;2023-12-14T01:49:14;4.40;;;3.45;;
57778;SDS011;43608;49.486;9.640;2023-12-14T01:49:44;4.50;;;3.70;;
57778;SDS011;43608;49.486;9.640;2023-12-14T01:50:14;4.88;;;4.00;;
57778;SDS011;43608;49.486;9.640;2023-12-14T01:50:45;5.32;;;4.00;;
57778;SDS011;43608;49.486;9.640;2023-12-14T01:51:15;4.78;;;3.78;;
57778;SDS011;43608;49.486;9.640;2023-12-14T01:51:45;5.10;;;4.10;;
57778;SDS011;43608;49.486;9.640;2023-12-14T01:52:16;4.90;;;3.75;;
57778;SDS011;43608;49.486;9.640;2023-12-14T01:52:46;4.93;;;3.95;;
57778;SDS011;43608;49.486;9.640;2023-12-14T01:53:16;4.72;;;3.90;;
57778;SDS011;43608;49.486;9.640;2023-12-14T01:53:47;6.47;;;4.03;;
57778;SDS011;43608;49.486;9.640;2023-12-14T01:54:17;5.15;;;3.78;;
57778;SDS011;43608;49.486;9.640;2023-12-14T01:54:48;4.47;;;3.83;;
57778;SDS011;43608;49.486;9.640;2023-12-14T01:55:18;5.03;;;4.00;;
57778;SDS011;43608;49.486;9.640;2023-12-14T01:55:48;4.45;;;3.70;;
57778;SDS011;43608;49.486;9.640;2023-12-14T01:56:19;5.32;;;4.13;;
57778;SDS011;43608;49.486;9.640;2023-12-14T01:56:49;5.13;;;4.13;;
57778;SDS011;43608;49.486;9.640;2023-12-14T01:57:19;5.00;;;4.05;;
57778;SDS011;43608;49.486;9.640;2023-12-14T01:57:50;5.07;;;4.18;;
57778;SDS011;43608;49.486;9.640;2023-12-14T01:58:21;4.80;;;4.07;;
57778;SDS011;43608;49.486;9.640;2023-12-14T01:58:51;5.47;;;4.22;;
57778;SDS011;43608;49.486;9.640;2023-12-14T01:59:22;4.90;;;4.07;;
57778;SDS011;43608;49.486;9.640;2023-12-14T01:59:52;5.38;;;4.30;;
57778;SDS011;43608;49.486;9.640;2023-12-14T02:02:14;4.68;;;3.60;;
57778;SDS011;43608;49.486;9.640;2023-12-14T02:02:44;4.90;;;3.97;;
57778;SDS011;43608;49.486;9.640;2023-12-14T02:03:15;4.80;;;3.97;;
57778;SDS011;43608;49.486;9.640;2023-12-14T02:03:47;4.93;;;4.25;;
57778;SDS011;43608;49.486;9.640;2023-12-14T02:04:19;5.20;;;4.22;;
57778;SDS011;43608;49.486;9.640;2023-12-14T02:04:49;4.80;;;4.15;;
57778;SDS011;43608;49.486;9.640;2023-12-14T02:05:20;4.90;;;4.05;;
57778;SDS011;43608;49.486;9.640;2023-12-14T02:05:51;5.65;;;4.30;;
57778;SDS011;43608;49.486;9.640;2023-12-14T02:06:22;5.43;;;4.20;;
57778;SDS011;43608;49.486;9.640;2023-12-14T02:06:52;5.35;;;4.30;;
57778;SDS011;43608;49.486;9.640;2023-12-14T02:07:22;5.07;;;4.18;;
57778;SDS011;43608;49.486;9.640;2023-12-14T02:07:53;5.13;;;4.28;;
57778;SDS011;43608;49.486;9.640;2023-12-14T02:08:29;4.72;;;3.97;;
57778;SDS011;43608;49.486;9.640;2023-12-14T02:09:00;5.32;;;4.30;;
57778;SDS011;43608;49.486;9.640;2023-12-14T02:09:30;5.28;;;4.38;;
57778;SDS011;43608;49.486;9.640;2023-12-14T02:10:00;5.03;;;4.05;;
57778;SDS011;43608;49.486;9.640;2023-12-14T02:10:30;5.03;;;4.20;;
57778;SDS011;43608;49.486;9.640;2023-12-14T02:11:01;5.70;;;4.22;;
57778;SDS011;43608;49.486;9.640;2023-12-14T02:11:31;5.53;;;4.10;;
57778;SDS011;43608;49.486;9.640;2023-12-14T02:12:02;5.18;;;4.35;;
57778;SDS011;43608;49.486;9.640;2023-12-14T02:12:32;5.35;;;4.30;;
57778;SDS011;43608;49.486;9.640;2023-12-14T02:13:04;5.63;;;4.47;;
57778;SDS011;43608;49.486;9.640;2023-12-14T02:13:34;5.45;;;4.60;;
57778;SDS011;43608;49.486;9.640;2023-12-14T02:14:05;5.70;;;4.60;;
57778;SDS011;43608;49.486;9.640;2023-12-14T02:14:37;5.22;;;4.40;;
57778;SDS011;43608;49.486;9.640;2023-12-14T02:15:07;5.05;;;4.05;;
57778;SDS011;43608;49.486;9.640;2023-12-14T02:15:38;4.75;;;4.05;;
57778;SDS011;43608;49.486;9.640;2023-12-14T02:16:09;4.80;;;4.20;;
57778;SDS011;43608;49.486;9.640;2023-12-14T02:16:39;5.60;;;4.53;;
57778;SDS011;43608;49.486;9.640;2023-12-14T02:17:10;5.70;;;4.47;;
57778;SDS011;43608;49.486;9.640;2023-12-14T02:17:40;5.00;;;4.20;;
57778;SDS011;43608;49.486;9.640;2023-12-14T02:18:10;5.05;;;4.25;;
57778;SDS011;43608;49.486;9.640;2023-12-14T02:18:41;5.45;;;4.15;;
57778;SDS011;43608;49.486;9.640;2023-12-14T02:19:11;4.72;;;4.03;;
57778;SDS011;43608;49.486;9.640;2023-12-14T02:19:41;5.75;;;4.30;;
57778;SDS011;43608;49.486;9.640;2023-12-14T02:20:12;5.05;;;4.18;;
57778;SDS011;43608;49.486;9.640;2023-12-14T02:20:42;5.20;;;4.30;;
57778;SDS011;43608;49.486;9.640;2023-12-14T02:21:12;4.90;;;4.15;;
57778;SDS011;43608;49.486;9.640;2023-12-14T02:21:43;4.93;;;4.15;;
57778;SDS011;43608;49.486;9.640;2023-12-14T02:22:13;4.63;;;4.05;;
57778;SDS011;43608;49.486;9.640;2023-12-14T02:23:21;5.10;;;3.90;;
57778;SDS011;43608;49.486;9.640;2023-12-14T02:23:51;5.40;;;4.07;;
57778;SDS011;43608;49.486;9.640;2023-12-14T02:24:22;5.60;;;4.25;;
57778;SDS011;43608;49.486;9.640;2023-12-14T02:24:52;4.85;;;4.05;;
57778;SDS011;43608;49.486;9.640;2023-12-14T02:25:23;4.47;;;3.85;;
57778;SDS011;43608;49.486;9.640;2023-12-14T02:25:53;5.30;;;4.20;;
57778;SDS011;43608;49.486;9.640;2023-12-14T02:26:24;4.97;;;3.92;;
57778;SDS011;43608;49.486;9.640;2023-12-14T02:26:54;5.22;;;4.00;;
57778;SDS011;43608;49.486;9.640;2023-12-14T02:27:24;5.07;;;4.15;;
57778;SDS011;43608;49.486;9.640;2023-12-14T02:27:55;4.32;;;3.63;;
57778;SDS011;43608;49.486;9.640;2023-12-14T02:28:25;5.30;;;4.15;;
57778;SDS011;43608;49.486;9.640;2023-12-14T02:28:56;5.07;;;4.15;;
57778;SDS011;43608;49.486;9.640;2023-12-14T02:29:26;5.72;;;4.22;;
57778;SDS011;43608;49.486;9.640;2023-12-14T02:29:57;5.45;;;3.90;;
57778;SDS011;43608;49.486;9.640;2023-12-14T02:30:27;5.22;;;4.38;;
57778;SDS011;43608;49.486;9.640;2023-12-14T02:30:57;4.97;;;3.90;;
57778;SDS011;43608;49.486;9.640;2023-12-14T02:31:28;5.40;;;4.03;;
57778;SDS011;43608;49.486;9.640;2023-12-14T02:31:58;5.00;;;4.18;;
57778;SDS011;43608;49.486;9.640;2023-12-14T02:32:28;4.47;;;3.78;;
57778;SDS011;43608;49.486;9.640;2023-12-14T02:32:59;5.47;;;4.45;;
57778;SDS011;43608;49.486;9.640;2023-12-14T02:33:29;5.15;;;4.30;;
57778;SDS011;43608;49.486;9.640;2023-12-14T02:34:00;5.13;;;4.07;;
57778;SDS011;43608;49.486;9.640;2023-12-14T02:34:30;5.05;;;4.20;;
57778;SDS011;43608;49.486;9.640;2023-12-14T02:35:00;5.13;;;4.25;;
57778;SDS011;43608;49.486;9.640;2023-12-14T02:35:31;5.95;;;4.30;;
57778;SDS011;43608;49.486;9.640;2023-12-14T02:36:01;5.40;;;4.30;;
57778;SDS011;43608;49.486;9.640;2023-12-14T02:36:33;5.93;;;4.63;;
57778;SDS011;43608;49.486;9.640;2023-12-14T02:37:04;5.32;;;4.35;;
57778;SDS011;43608;49.486;9.640;2023-12-14T02:37:34;6.28;;;4.68;;
57778;SDS011;43608;49.486;9.640;2023-12-14T02:38:10;5.00;;;4.25;;
57778;SDS011;43608;49.486;9.640;2023-12-14T02:38:40;5.75;;;4.55;;
57778;SDS011;43608;49.486;9.640;2023-12-14T02:39:11;5.75;;;4.65;;
57778;SDS011;43608;49.486;9.640;2023-12-14T02:39:41;6.05;;;4.88;;
57778;SDS011;43608;49.486;9.640;2023-12-14T02:40:11;5.93;;;4.90;;
57778;SDS011;43608;49.486;9.640;2023-12-14T02:40:42;6.18;;;4.95;;
57778;SDS011;43608;49.486;9.640;2023-12-14T02:41:13;6.72;;;4.95;;
57778;SDS011;43608;49.486;9.640;2023-12-14T02:41:43;6.28;;;4.90;;
57778;SDS011;43608;49.486;9.640;2023-12-14T02:42:13;6.55;;;4.82;;
57778;SDS011;43608;49.486;9.640;2023-12-14T02:42:44;6.25;;;4.95;;
57778;SDS011;43608;49.486;9.640;2023-12-14T02:43:14;5.55;;;4.60;;
57778;SDS011;43608;49.486;9.640;2023-12-14T02:43:45;5.78;;;4.95;;
57778;SDS011;43608;49.486;9.640;2023-12-14T02:44:15;6.30;;;5.10;;
57778;SDS011;43608;49.486;9.640;2023-12-14T02:44:46;6.47;;;4.97;;
57778;SDS011;43608;49.486;9.640;2023-12-14T02:45:16;6.25;;;5.05;;
57778;SDS011;43608;49.486;9.640;2023-12-14T02:45:47;6.00;;;4.80;;
57778;SDS011;43608;49.486;9.640;2023-12-14T02:46:19;5.82;;;4.80;;
57778;SDS011;43608;49.486;9.640;2023-12-14T02:46:50;5.80;;;4.82;;
57778;SDS011;43608;49.486;9.640;2023-12-14T02:47:20;5.50;;;4.47;;
57778;SDS011;43608;49.486;9.640;2023-12-14T02:47:50;6.43;;;5.03;;
57778;SDS011;43608;49.486;9.640;2023-12-14T02:48:22;6.05;;;4.57;;
57778;SDS011;43608;49.486;9.640;2023-12-14T02:48:52;6.38;;;4.63;;
57778;SDS011;43608;49.486;9.640;2023-12-14T02:49:23;5.90;;;4.75;;
57778;SDS011;43608;49.486;9.640;2023-12-14T02:49:53;6.13;;;4.70;;
57778;SDS011;43608;49.486;9.640;2023-12-14T02:50:23;5.97;;;4.80;;
57778;SDS011;43608;49.486;9.640;2023-12-14T02:50:54;5.82;;;4.50;;
57778;SDS011;43608;49.486;9.640;2023-12-14T02:51:24;6.05;;;4.88;;
57778;SDS011;43608;49.486;9.640;2023-12-14T02:51:55;5.20;;;4.50;;
57778;SDS011;43608;49.486;9.640;2023-12-14T02:52:25;6.05;;;4.55;;
57778;SDS011;43608;49.486;9.640;2023-12-14T02:52:55;6.47;;;4.78;;
57778;SDS011;43608;49.486;9.640;2023-12-14T02:53:26;6.22;;;4.60;;
57778;SDS011;43608;49.486;9.640;2023-12-14T02:53:57;5.40;;;4.43;;
57778;SDS011;43608;49.486;9.640;2023-12-14T02:54:27;5.88;;;4.88;;
57778;SDS011;43608;49.486;9.640;2023-12-14T02:54:58;5.70;;;4.43;;
57778;SDS011;43608;49.486;9.640;2023-12-14T02:55:28;5.68;;;4.60;;
57778;SDS011;43608;49.486;9.640;2023-12-14T02:56:01;5.88;;;4.68;;
57778;SDS011;43608;49.486;9.640;2023-12-14T02:56:32;5.20;;;4.13;;
57778;SDS011;43608;49.486;9.640;2023-12-14T02:57:02;5.80;;;4.50;;
57778;SDS011;43608;49.486;9.640;2023-12-14T02:57:32;5.63;;;4.60;;
57778;SDS011;43608;49.486;9.640;2023-12-14T02:58:03;5.68;;;4.55;;
57778;SDS011;43608;49.486;9.640;2023-12-14T02:58:33;5.43;;;4.45;;
57778;SDS011;43608;49.486;9.640;2023-12-14T02:59:04;6.28;;;4.50;;
57778;SDS011;43608;49.486;9.640;2023-12-14T02:59:34;5.85;;;4.60;;
57778;SDS011;43608;49.486;9.640;2023-12-14T03:00:05;6.97;;;5.18;;
57778;SDS011;43608;49.486;9.640;2023-12-14T03:00:35;5.70;;;4.47;;
57778;SDS011;43608;49.486;9.640;2023-12-14T03:01:06;5.72;;;4.60;;
57778;SDS011;43608;49.486;9.640;2023-12-14T03:01:36;6.15;;;4.70;;
57778;SDS011;43608;49.486;9.640;2023-12-14T03:02:07;5.90;;;4.45;;
57778;SDS011;43608;49.486;9.640;2023-12-14T03:02:37;5.97;;;4.68;;
57778;SDS011;43608;49.486;9.640;2023-12-14T03:03:07;6.13;;;4.97;;
57778;SDS011;43608;49.486;9.640;2023-12-14T03:03:38;5.82;;;4.65;;
57778;SDS011;43608;49.486;9.640;2023-12-14T03:04:09;5.70;;;4.75;;
57778;SDS011;43608;49.486;9.640;2023-12-14T03:04:40;6.15;;;4.80;;
57778;SDS011;43608;49.486;9.640;2023-12-14T03:05:10;6.47;;;4.95;;
57778;SDS011;43608;49.486;9.640;2023-12-14T03:05:41;6.10;;;4.88;;
57778;SDS011;43608;49.486;9.640;2023-12-14T03:06:11;6.57;;;5.07;;
57778;SDS011;43608;49.486;9.640;2023-12-14T03:06:42;5.88;;;4.63;;